Time;durP1;ratioP1;P1;durP2;ratioP2;P2;SDS_P1;SDS_P2;PMS_P1;PMS_P2;Temp;Humidity;BMP_temperature;BMP_pressure;BME280_temperature;BME280_humidity;BME280_pressure;Samples;Min_cycle;Max_cycle;Signal;HPM_P1;HPM_P2
2024/04/20 00:00:20;;;;;;;2.63;2.15;;;;;;;8.08;60.80;94620.47;5446226;26;20014;-50
2024/04/20 00:02:45;;;;;;;2.05;1.70;;;;;;;7.87;61.51;94623.75;5445500;26;20000;-52
2024/04/20 00:05:11;;;;;;;2.25;1.73;;;;;;;7.81;61.14;94620.88;5436413;26;20008;-49
2024/04/20 00:07:36;;;;;;;2.10;1.50;;;;;;;7.35;62.31;94625.25;5410611;26;20002;-51
2024/04/20 00:10:02;;;;;;;1.58;1.48;;;;;;;7.29;63.15;94613.84;5418933;26;20137;-53
2024/04/20 00:12:28;;;;;;;1.67;1.50;;;;;;;7.40;62.12;94620.38;5432698;26;20003;-53
2024/04/20 00:14:54;;;;;;;1.58;1.38;;;;;;;7.29;62.15;94606.06;5441266;26;19999;-52
2024/04/20 00:17:19;;;;;;;1.48;1.38;;;;;;;7.17;61.89;94604.84;5446354;26;20014;-51
2024/04/20 00:19:45;;;;;;;1.10;1.00;;;;;;;6.97;61.34;94600.13;5417947;26;20014;-53
2024/04/20 00:22:11;;;;;;;0.80;0.80;;;;;;;6.72;60.93;94606.38;5447176;26;20018;-51
2024/04/20 00:24:37;;;;;;;0.85;0.77;;;;;;;6.25;61.90;94598.47;5443874;26;19999;-50
2024/04/20 00:27:03;;;;;;;0.82;0.80;;;;;;;6.06;61.60;94602.22;5425594;26;20075;-53
2024/04/20 00:29:28;;;;;;;0.80;0.65;;;;;;;5.83;62.43;94602.09;5449434;26;20013;-49
2024/04/20 00:31:54;;;;;;;0.68;0.68;;;;;;;6.25;60.96;94593.31;5439639;26;19999;-48
2024/04/20 00:34:20;;;;;;;0.90;0.80;;;;;;;5.83;62.14;94596.13;5447239;26;20002;-47
2024/04/20 00:36:46;;;;;;;1.10;0.90;;;;;;;5.98;61.29;94596.31;5449233;26;20010;-48
2024/04/20 00:39:12;;;;;;;1.00;0.90;;;;;;;6.14;61.54;94601.41;5446591;26;20455;-51
2024/04/20 00:41:37;;;;;;;0.80;0.80;;;;;;;5.87;61.70;94590.47;5432943;26;20002;-47
2024/04/20 00:44:02;;;;;;;0.75;0.70;;;;;;;5.79;61.55;94576.78;5449105;26;19999;-52
2024/04/20 00:46:29;;;;;;;0.55;0.40;;;;;;;6.18;61.46;94578.66;5435615;26;20018;-50
2024/04/20 00:48:57;;;;;;;0.63;0.50;;;;;;;5.55;62.91;94572.44;5444121;26;20010;-51
2024/04/20 00:51:22;;;;;;;0.30;0.30;;;;;;;5.52;63.82;94580.50;5426480;26;20015;-50
2024/04/20 00:53:52;;;;;;;0.50;0.50;;;;;;;5.95;62.54;94569.03;5440993;26;20011;-48
2024/04/20 00:56:19;;;;;;;0.60;0.57;;;;;;;5.81;63.01;94575.63;5443067;26;20007;-47
2024/04/20 00:58:45;;;;;;;0.90;0.60;;;;;;;5.93;63.19;94583.03;5444688;26;20085;-49
2024/04/20 01:01:11;;;;;;;0.85;0.43;;;;;;;5.94;63.60;94589.81;5437946;26;21528;-52
2024/04/20 01:03:37;;;;;;;1.13;0.70;;;;;;;6.20;62.91;94593.00;5448611;26;20010;-52
2024/04/20 01:06:02;;;;;;;0.50;0.50;;;;;;;6.35;62.53;94598.28;5425759;26;20040;-51
2024/04/20 01:08:28;;;;;;;1.17;0.70;;;;;;;6.35;62.55;94600.88;5425735;26;20546;-50
2024/04/20 01:10:54;;;;;;;1.38;0.80;;;;;;;6.39;62.28;94598.75;5447308;26;20010;-52
2024/04/20 01:13:28;;;;;;;1.00;0.70;;;;;;;6.04;62.17;94595.63;5444211;26;20413;-50
2024/04/20 01:15:54;;;;;;;0.75;0.68;;;;;;;6.45;60.94;94603.25;5439984;26;20003;-50
2024/04/20 01:18:20;;;;;;;1.75;0.55;;;;;;;6.22;61.78;94603.16;5443192;26;20013;-48
2024/04/20 01:20:47;;;;;;;0.43;0.43;;;;;;;6.43;61.16;94600.81;5423518;26;20004;-50
2024/04/20 01:23:13;;;;;;;0.70;0.63;;;;;;;6.20;62.04;94611.06;5468328;26;20071;-46
2024/04/20 01:25:56;;;;;;;0.40;0.40;;;;;;;5.34;62.83;94620.16;5412470;26;20014;-46
2024/04/20 01:28:22;;;;;;;0.40;0.40;;;;;;;5.92;62.69;94627.88;5433869;26;20011;-47
2024/04/20 01:30:47;;;;;;;0.35;0.32;;;;;;;6.10;62.41;94633.69;5442542;26;19999;-49
2024/04/20 01:33:12;;;;;;;0.50;0.32;;;;;;;6.29;61.78;94648.03;5446218;26;20002;-50
2024/04/20 01:35:40;;;;;;;0.55;0.32;;;;;;;6.33;61.19;94651.88;5442309;26;20015;-48
2024/04/20 01:38:07;;;;;;;0.30;0.30;;;;;;;6.13;61.49;94650.63;5439472;26;20006;-48
2024/04/20 01:40:32;;;;;;;0.60;0.40;;;;;;;6.32;60.56;94652.03;5446215;26;20002;-45
2024/04/20 01:42:57;;;;;;;0.57;0.47;;;;;;;6.21;61.10;94660.97;5442506;26;20030;-45
2024/04/20 01:45:23;;;;;;;1.60;0.60;;;;;;;6.15;60.55;94654.69;5445911;26;20050;-47
2024/04/20 01:47:48;;;;;;;1.15;0.68;;;;;;;6.22;60.27;94650.44;5449311;26;20003;-46
2024/04/20 01:50:15;;;;;;;1.42;0.55;;;;;;;6.06;60.40;94645.31;5445868;26;20017;-48
2024/04/20 01:52:41;;;;;;;1.05;0.60;;;;;;;5.91;60.52;94654.66;5445052;26;19998;-48
2024/04/20 01:55:06;;;;;;;0.82;0.57;;;;;;;5.91;60.58;94673.53;5447104;26;20013;-45
2024/04/20 01:57:32;;;;;;;26.17;1.45;;;;;;;5.83;60.29;94676.13;5440428;26;20004;-46
2024/04/20 01:59:58;;;;;;;105.82;3.53;;;;;;;5.39;61.48;94681.56;5411838;26;20000;-46
2024/04/20 02:02:23;;;;;;;60.38;2.70;;;;;;;5.55;61.06;94678.19;5447305;26;20003;-45
2024/04/20 02:04:48;;;;;;;81.78;2.83;;;;;;;5.37;61.53;94680.91;5443950;26;20014;-48
2024/04/20 02:07:14;;;;;;;33.88;1.85;;;;;;;5.49;60.83;94695.13;5448889;26;20075;-47
2024/04/20 02:09:40;;;;;;;89.38;2.78;;;;;;;5.19;61.60;94693.94;5449365;26;20018;-46
2024/04/20 02:12:06;;;;;;;72.30;2.30;;;;;;;4.89;62.01;94688.34;5449230;26;20006;-46
2024/04/20 02:14:32;;;;;;;42.47;2.05;;;;;;;4.75;62.36;94696.69;5449257;26;20002;-47
2024/04/20 02:16:57;;;;;;;39.95;1.40;;;;;;;4.83;62.36;94704.44;5443727;26;20027;-46
2024/04/20 02:19:22;;;;;;;92.53;3.28;;;;;;;4.80;61.76;94704.75;5447520;26;20006;-50
2024/04/20 02:21:48;;;;;;;2.20;0.88;;;;;;;4.47;63.09;94702.00;5436685;26;20013;-46
2024/04/20 02:24:13;;;;;;;2.20;0.95;;;;;;;4.63;62.30;94703.88;5448452;26;20352;-47
2024/04/20 02:26:38;;;;;;;2.95;1.20;;;;;;;4.32;63.34;94701.75;5443884;26;20054;-46
2024/04/20 02:29:04;;;;;;;1.35;1.10;;;;;;;3.79;65.50;94703.47;5445850;26;20003;-46
2024/04/20 02:31:30;;;;;;;1.27;1.00;;;;;;;3.44;66.56;94696.56;5439981;26;20039;-46
2024/04/20 02:33:56;;;;;;;0.70;0.63;;;;;;;3.90;65.26;94702.41;5451083;26;20065;-45
2024/04/20 02:36:25;;;;;;;0.60;0.50;;;;;;;4.04;64.32;94703.66;5419271;26;19998;-45
2024/04/20 02:38:50;;;;;;;0.40;0.38;;;;;;;3.97;64.76;94702.66;5444151;26;19999;-46
2024/04/20 02:41:16;;;;;;;0.40;0.40;;;;;;;4.35;63.89;94701.44;5449196;26;20052;-45
2024/04/20 02:43:41;;;;;;;0.30;0.30;;;;;;;4.29;63.56;94705.44;5443393;26;20015;-46
2024/04/20 02:46:06;;;;;;;0.30;0.30;;;;;;;4.19;63.76;94703.91;5447798;26;20031;-46
2024/04/20 02:48:32;;;;;;;0.20;0.20;;;;;;;4.38;63.63;94705.47;5412871;26;19999;-46
2024/04/20 02:50:57;;;;;;;0.50;0.30;;;;;;;4.45;63.63;94714.22;5418808;26;19999;-46
2024/04/20 02:53:22;;;;;;;0.70;0.50;;;;;;;4.51;63.63;94721.34;5447820;26;20015;-46
2024/04/20 02:55:48;;;;;;;0.50;0.50;;;;;;;4.48;64.27;94722.44;5445878;26;20022;-46
2024/04/20 02:58:13;;;;;;;0.43;0.43;;;;;;;4.70;63.12;94723.72;5448574;26;20091;-48
2024/04/20 03:00:39;;;;;;;0.40;0.40;;;;;;;4.51;63.64;94721.34;5443102;26;20004;-49
2024/04/20 03:03:04;;;;;;;0.40;0.40;;;;;;;4.33;63.93;94723.16;5444033;26;20014;-47
2024/04/20 03:05:30;;;;;;;0.82;0.57;;;;;;;4.39;64.26;94725.13;5447112;26;20002;-46
2024/04/20 03:07:55;;;;;;;0.65;0.50;;;;;;;4.43;63.98;94723.88;5413608;26;20007;-46
2024/04/20 03:10:21;;;;;;;0.30;0.30;;;;;;;3.89;65.89;94729.13;5450366;26;19999;-46
2024/04/20 03:12:46;;;;;;;0.95;0.40;;;;;;;3.52;67.08;94715.47;5416026;26;20003;-45
2024/04/20 03:15:11;;;;;;;0.55;0.40;;;;;;;4.04;65.52;94719.13;5433620;26;20038;-46
2024/04/20 03:17:37;;;;;;;0.52;0.40;;;;;;;3.99;65.80;94721.31;5440610;26;20004;-46
2024/04/20 03:20:03;;;;;;;0.43;0.40;;;;;;;4.24;64.99;94715.38;5407829;26;20423;-47
2024/04/20 03:22:28;;;;;;;0.50;0.40;;;;;;;4.18;65.01;94715.97;5445069;26;20014;-45
2024/04/20 03:24:53;;;;;;;0.60;0.50;;;;;;;4.45;64.05;94721.94;5417880;26;19999;-47
2024/04/20 03:27:19;;;;;;;0.50;0.50;;;;;;;4.25;64.75;94711.84;5448218;26;20013;-50
2024/04/20 03:29:44;;;;;;;1.02;0.43;;;;;;;3.66;66.84;94719.28;5448141;26;20075;-46
2024/04/20 03:32:09;;;;;;;0.68;0.60;;;;;;;4.02;65.77;94721.84;5434647;26;20030;-49
2024/04/20 03:34:35;;;;;;;0.98;0.70;;;;;;;4.39;64.92;94718.22;5448236;26;20002;-46
2024/04/20 03:37:00;;;;;;;1.00;0.80;;;;;;;4.62;63.80;94712.53;5456629;26;20025;-46
2024/04/20 03:39:26;;;;;;;0.77;0.70;;;;;;;4.74;63.58;94710.50;5441821;26;20003;-48
2024/04/20 03:41:51;;;;;;;0.63;0.57;;;;;;;5.06;62.41;94715.00;5433005;26;20011;-46
2024/04/20 03:44:16;;;;;;;0.43;0.40;;;;;;;4.60;63.39;94711.91;5441163;26;20005;-46
2024/04/20 03:46:42;;;;;;;0.40;0.20;;;;;;;4.80;63.13;94712.50;5448033;26;20014;-46
2024/04/20 03:49:07;;;;;;;0.30;0.30;;;;;;;5.06;62.07;94715.81;5448027;26;20010;-49
2024/04/20 03:51:33;;;;;;;0.30;0.20;;;;;;;5.09;62.29;94715.50;5443378;26;20043;-46
2024/04/20 03:53:59;;;;;;;0.20;0.20;;;;;;;5.24;61.48;94714.91;5417877;26;20013;-46
2024/04/20 03:56:25;;;;;;;0.32;0.30;;;;;;;4.92;62.26;94721.53;5445928;26;20003;-48
2024/04/20 03:58:51;;;;;;;0.20;0.20;;;;;;;5.06;62.57;94718.41;5448089;26;20025;-46
2024/04/20 04:01:17;;;;;;;0.43;0.43;;;;;;;5.01;63.18;94719.81;5448806;26;20014;-46
2024/04/20 04:03:42;;;;;;;0.57;0.40;;;;;;;5.05;63.06;94731.44;5442101;26;20019;-49
2024/04/20 04:06:07;;;;;;;0.40;0.40;;;;;;;5.17;62.52;94731.94;5441291;26;20003;-46
2024/04/20 04:08:33;;;;;;;0.40;0.40;;;;;;;4.86;63.50;94735.06;5448924;26;20554;-48
2024/04/20 04:10:58;;;;;;;0.90;0.50;;;;;;;5.15;62.50;94724.38;5441223;26;20014;-46
2024/04/20 04:13:23;;;;;;;0.38;0.32;;;;;;;5.27;61.69;94725.72;5449429;26;19999;-47
2024/04/20 04:15:49;;;;;;;0.60;0.50;;;;;;;5.23;61.77;94732.13;5443279;26;20010;-50
2024/04/20 04:18:15;;;;;;;0.52;0.43;;;;;;;5.24;62.01;94728.59;5446032;26;20011;-47
2024/04/20 04:20:40;;;;;;;0.50;0.50;;;;;;;5.25;62.29;94729.38;5445685;26;20071;-49
2024/04/20 04:23:06;;;;;;;0.50;0.40;;;;;;;5.05;63.01;94729.66;5446692;26;20015;-48
2024/04/20 04:25:32;;;;;;;0.40;0.40;;;;;;;5.20;62.46;94731.66;5446871;26;20007;-47
2024/04/20 04:28:00;;;;;;;0.50;0.40;;;;;;;5.15;62.81;94733.88;5449220;26;20463;-50
2024/04/20 04:30:26;;;;;;;0.73;0.40;;;;;;;5.32;62.29;94740.69;5449357;26;20018;-49
2024/04/20 04:32:51;;;;;;;0.68;0.55;;;;;;;5.47;61.93;94739.13;5447106;26;20052;-51
2024/04/20 04:35:17;;;;;;;0.55;0.43;;;;;;;5.40;61.85;94750.22;5444606;26;20017;-51
2024/04/20 04:37:43;;;;;;;2.08;0.60;;;;;;;5.28;62.44;94753.09;5449383;26;19999;-46
2024/04/20 04:40:09;;;;;;;0.85;0.70;;;;;;;5.47;62.25;94761.53;5447259;26;20010;-49
2024/04/20 04:42:34;;;;;;;0.55;0.50;;;;;;;5.27;63.07;94763.56;5437197;26;20030;-52
2024/04/20 04:45:00;;;;;;;0.60;0.60;;;;;;;5.36;62.73;94762.63;5448997;26;20138;-52
2024/04/20 04:47:25;;;;;;;0.60;0.50;;;;;;;5.22;62.98;94758.09;5410897;26;20011;-50
2024/04/20 04:49:51;;;;;;;0.50;0.50;;;;;;;5.20;63.24;94767.75;5440225;26;20013;-51
2024/04/20 04:52:16;;;;;;;1.20;0.60;;;;;;;5.46;62.51;94778.78;5444134;26;20003;-49
2024/04/20 04:54:42;;;;;;;0.82;0.50;;;;;;;5.31;63.44;94770.00;5448858;26;20079;-49
2024/04/20 04:57:08;;;;;;;2.17;0.80;;;;;;;5.26;63.59;94787.75;5443344;26;20063;-46
2024/04/20 04:59:34;;;;;;;0.70;0.60;;;;;;;5.15;63.56;94777.72;5440982;26;19999;-49
2024/04/20 05:01:59;;;;;;;0.70;0.68;;;;;;;5.33;63.07;94780.19;5432532;26;20013;-47
2024/04/20 05:04:26;;;;;;;0.68;0.60;;;;;;;5.19;63.55;94787.53;5443622;26;20015;-48
2024/04/20 05:06:51;;;;;;;1.20;0.60;;;;;;;5.27;63.07;94791.91;5461202;26;20003;-48
2024/04/20 05:09:17;;;;;;;0.70;0.38;;;;;;;5.12;63.52;94796.84;5446708;26;20010;-45
2024/04/20 05:11:42;;;;;;;1.30;0.90;;;;;;;5.04;63.61;94799.41;5433635;26;20003;-46
2024/04/20 05:14:07;;;;;;;3.58;2.03;;;;;;;5.24;62.45;94800.00;5414911;26;20014;-48
2024/04/20 05:16:33;;;;;;;2.42;1.98;;;;;;;5.20;62.75;94801.25;5444108;26;20057;-47
2024/04/20 05:18:58;;;;;;;2.25;1.30;;;;;;;5.24;62.80;94798.22;5436311;26;20019;-51
2024/04/20 05:21:23;;;;;;;2.08;1.02;;;;;;;5.26;62.86;94805.78;5445620;26;20000;-50
2024/04/20 05:23:49;;;;;;;0.68;0.68;;;;;;;5.38;62.71;94808.91;5447476;26;20011;-49
2024/04/20 05:26:14;;;;;;;0.50;0.50;;;;;;;5.33;63.16;94806.78;5445065;26;19999;-49
2024/04/20 05:28:39;;;;;;;0.40;0.40;;;;;;;5.30;62.92;94804.53;5437217;26;19995;-52
2024/04/20 05:31:05;;;;;;;1.85;0.40;;;;;;;5.49;62.49;94806.84;5435584;26;20524;-52
2024/04/20 05:33:31;;;;;;;0.40;0.40;;;;;;;5.34;62.53;94813.56;5443640;26;20002;-49
2024/04/20 05:36:02;;;;;;;0.50;0.50;;;;;;;5.48;62.32;94815.56;5440189;26;20000;-47
2024/04/20 05:38:27;;;;;;;;;;;;;;;5.16;63.28;94821.38;5437598;26;20009;-47
2024/04/20 05:40:52;;;;;;;0.40;0.40;;;;;;;5.35;63.00;94822.91;5427455;26;19925;-49
2024/04/20 05:43:18;;;;;;;0.88;0.40;;;;;;;5.53;63.24;94825.41;5443804;26;19996;-48
2024/04/20 05:45:43;;;;;;;0.60;0.60;;;;;;;5.72;62.67;94833.84;5449840;26;20097;-46
2024/04/20 05:48:09;;;;;;;1.35;0.55;;;;;;;5.72;62.68;94829.50;5439675;26;20023;-53
2024/04/20 05:50:34;;;;;;;0.52;0.47;;;;;;;5.65;62.28;94833.66;5433163;26;19995;-50
2024/04/20 05:52:59;;;;;;;0.60;0.60;;;;;;;5.62;62.69;94839.94;5442932;26;20009;-47
2024/04/20 05:55:25;;;;;;;1.48;0.70;;;;;;;5.46;63.13;94840.69;5449429;26;19994;-46
2024/04/20 05:57:50;;;;;;;1.60;0.82;;;;;;;5.59;62.56;94845.41;5432304;26;20007;-47
2024/04/20 06:00:16;;;;;;;2.70;2.50;;;;;;;5.58;62.87;94848.13;5449489;26;20006;-50
2024/04/20 06:02:41;;;;;;;2.15;1.63;;;;;;;5.83;62.17;94855.00;5431395;26;19999;-47
2024/04/20 06:05:06;;;;;;;2.40;1.23;;;;;;;5.84;62.45;94861.75;5430956;26;19994;-49
2024/04/20 06:07:32;;;;;;;1.48;1.38;;;;;;;5.98;62.37;94869.94;5439028;26;20000;-46
2024/04/20 06:09:57;;;;;;;1.83;1.27;;;;;;;5.91;62.43;94872.28;5443173;26;20014;-47
2024/04/20 06:12:23;;;;;;;1.40;1.30;;;;;;;5.87;62.79;94868.41;5441174;26;20048;-45
2024/04/20 06:14:48;;;;;;;2.03;1.48;;;;;;;6.11;61.95;94872.88;5437261;26;20041;-48
2024/04/20 06:17:14;;;;;;;2.38;1.80;;;;;;;6.20;61.03;94878.84;5443627;26;20011;-46
2024/04/20 06:19:39;;;;;;;2.53;1.90;;;;;;;6.11;61.74;94878.03;5439056;26;19995;-50
2024/04/20 06:22:05;;;;;;;2.47;1.90;;;;;;;6.43;61.03;94884.19;5446159;26;20043;-47
2024/04/20 06:24:30;;;;;;;2.78;2.20;;;;;;;6.48;61.01;94888.91;5446019;26;20014;-45
2024/04/20 06:26:56;;;;;;;4.93;2.92;;;;;;;6.44;60.70;94891.00;5443077;26;19999;-49
2024/04/20 06:29:23;;;;;;;6.55;5.22;;;;;;;6.67;60.32;94898.13;5448925;26;20017;-45
2024/04/20 06:31:49;;;;;;;5.88;4.38;;;;;;;6.33;61.79;94893.88;5418732;26;20006;-47
2024/04/20 06:34:15;;;;;;;4.13;2.80;;;;;;;6.43;61.44;94892.75;5447569;26;19998;-47
2024/04/20 06:36:41;;;;;;;3.05;2.58;;;;;;;6.51;62.06;94902.31;5448276;26;20500;-48
2024/04/20 06:39:06;;;;;;;3.38;2.42;;;;;;;6.60;61.93;94905.69;5457471;26;20009;-45
2024/04/20 06:41:32;;;;;;;5.10;2.60;;;;;;;6.72;62.28;94907.00;5448092;26;20124;-47
2024/04/20 06:43:59;;;;;;;4.47;3.05;;;;;;;6.82;61.05;94910.22;5449976;26;19999;-48
2024/04/20 06:46:27;;;;;;;3.22;2.47;;;;;;;6.80;61.35;94911.38;5450054;26;19998;-47
2024/04/20 06:48:54;;;;;;;2.95;2.40;;;;;;;6.92;60.64;94915.22;5437920;26;20002;-45
2024/04/20 06:51:19;;;;;;;4.30;2.25;;;;;;;6.78;61.98;94910.72;5445472;26;20481;-46
2024/04/20 06:53:44;;;;;;;3.47;2.60;;;;;;;6.68;61.71;94907.47;5449680;26;20144;-51
2024/04/20 06:56:12;;;;;;;2.92;2.40;;;;;;;6.74;61.38;94912.00;5448872;26;20067;-45
2024/04/20 06:58:39;;;;;;;3.60;2.60;;;;;;;6.83;61.89;94908.44;5404375;26;20007;-51
2024/04/20 07:01:04;;;;;;;2.92;2.60;;;;;;;6.71;62.00;94920.09;5416028;26;20003;-47
2024/04/20 07:03:29;;;;;;;4.18;2.60;;;;;;;6.87;62.26;94920.06;5461542;26;20359;-49
2024/04/20 07:05:55;;;;;;;4.25;3.10;;;;;;;6.95;60.46;94919.25;5403793;26;20003;-45
2024/04/20 07:08:22;;;;;;;4.50;3.00;;;;;;;6.80;60.71;94932.03;5438813;26;19999;-45
2024/04/20 07:11:01;;;;;;;5.53;3.88;;;;;;;6.53;61.55;94927.97;5442840;26;19998;-46
2024/04/20 07:13:34;;;;;;;5.57;3.95;;;;;;;6.67;61.08;94926.53;5448952;26;20015;-43
2024/04/20 07:16:00;;;;;;;5.22;3.78;;;;;;;6.65;60.48;94930.09;5449679;26;20450;-45
2024/04/20 07:18:26;;;;;;;7.03;4.03;;;;;;;6.48;61.27;94931.03;5445158;26;20003;-44
2024/04/20 07:20:51;;;;;;;6.78;4.20;;;;;;;6.53;61.11;94936.53;5445911;26;20048;-47
2024/04/20 07:23:17;;;;;;;5.32;4.07;;;;;;;6.43;61.28;94941.03;5442652;26;20011;-45
2024/04/20 07:25:43;;;;;;;6.10;3.60;;;;;;;6.52;60.63;94939.28;5436346;26;19995;-45
2024/04/20 07:28:09;;;;;;;7.10;4.22;;;;;;;6.43;60.59;94943.63;5416533;26;20343;-46
2024/04/20 07:30:34;;;;;;;6.18;3.85;;;;;;;6.48;60.25;94943.94;5447303;26;19995;-44
2024/04/20 07:32:59;;;;;;;5.68;3.80;;;;;;;5.67;61.50;94943.50;5447853;26;19994;-44
2024/04/20 07:35:25;;;;;;;6.53;3.85;;;;;;;5.84;61.68;94951.31;5420895;26;19994;-44
2024/04/20 07:37:50;;;;;;;6.90;3.80;;;;;;;5.30;63.05;94948.91;5447210;26;19998;-46
2024/04/20 07:40:16;;;;;;;5.88;3.53;;;;;;;5.64;62.33;94943.00;5448946;26;20035;-46
2024/04/20 07:42:41;;;;;;;5.95;3.55;;;;;;;5.82;62.10;94948.88;5446794;26;19995;-44
2024/04/20 07:45:07;;;;;;;5.43;3.80;;;;;;;5.81;62.05;94951.63;5446599;26;20009;-44
2024/04/20 07:47:32;;;;;;;5.03;3.97;;;;;;;5.66;62.59;94959.13;5448060;26;19999;-44
2024/04/20 07:49:57;;;;;;;8.55;4.82;;;;;;;5.83;62.71;94960.81;5444062;26;19996;-45
2024/04/20 07:52:23;;;;;;;7.90;5.70;;;;;;;6.29;61.15;94968.28;5439566;26;20061;-45
2024/04/20 07:54:48;;;;;;;8.77;6.03;;;;;;;6.27;62.70;94972.81;5447232;26;20047;-45
2024/04/20 07:57:14;;;;;;;8.07;5.60;;;;;;;6.59;61.83;94971.28;5449257;26;19998;-46
2024/04/20 07:59:40;;;;;;;6.18;5.43;;;;;;;6.63;62.04;94978.53;5447865;26;20006;-45
2024/04/20 08:02:06;;;;;;;7.63;5.63;;;;;;;6.91;61.44;94972.25;5440627;26;20019;-44
2024/04/20 08:04:32;;;;;;;7.95;4.57;;;;;;;7.02;62.29;94975.34;5445729;26;20014;-47
2024/04/20 08:06:57;;;;;;;6.90;4.60;;;;;;;7.10;62.01;94982.31;5410926;26;19999;-45
2024/04/20 08:09:22;;;;;;;7.85;4.40;;;;;;;7.26;61.84;94991.03;5416528;26;20009;-46
2024/04/20 08:11:48;;;;;;;5.82;4.55;;;;;;;7.63;60.89;94991.31;5445662;26;20039;-45
2024/04/20 08:14:13;;;;;;;7.82;4.72;;;;;;;7.63;60.45;94993.06;5442094;26;20131;-47
2024/04/20 08:16:39;;;;;;;7.20;5.10;;;;;;;7.54;61.46;94987.13;5443835;26;20054;-49
2024/04/20 08:19:04;;;;;;;6.25;4.63;;;;;;;7.68;60.81;94993.41;5425691;26;20006;-46
2024/04/20 08:21:29;;;;;;;8.60;5.00;;;;;;;7.74;61.01;95003.09;5431825;26;20070;-49
2024/04/20 08:23:55;;;;;;;8.18;5.18;;;;;;;7.72;60.33;95004.25;5441031;26;20010;-46
2024/04/20 08:26:20;;;;;;;6.45;4.88;;;;;;;7.51;61.99;94999.59;5437170;26;20003;-46
2024/04/20 08:28:46;;;;;;;8.82;5.13;;;;;;;7.49;61.77;95004.13;5463664;26;19999;-48
2024/04/20 08:31:11;;;;;;;6.18;5.03;;;;;;;7.50;61.57;95003.97;5462675;26;20063;-49
2024/04/20 08:33:36;;;;;;;7.53;5.03;;;;;;;7.47;61.22;95006.06;5443604;26;19999;-47
2024/04/20 08:36:02;;;;;;;8.07;5.45;;;;;;;7.33;62.08;95010.09;5435947;26;20014;-53
2024/04/20 08:38:28;;;;;;;7.25;4.43;;;;;;;7.53;61.25;95015.75;5451789;26;20003;-48
2024/04/20 08:41:00;;;;;;;6.63;4.70;;;;;;;7.16;60.51;95024.78;5409833;26;20011;-49
2024/04/20 08:43:28;;;;;;;6.05;4.45;;;;;;;7.14;61.07;95024.16;5444524;26;20031;-46
2024/04/20 08:45:56;;;;;;;5.63;4.85;;;;;;;7.26;60.41;95022.88;5443683;26;20076;-48
2024/04/20 08:48:23;;;;;;;5.32;3.42;;;;;;;7.26;59.92;95035.00;5439286;26;20034;-46
2024/04/20 08:50:50;;;;;;;4.95;2.90;;;;;;;7.50;58.66;95035.00;5439576;26;20003;-49
2024/04/20 08:53:18;;;;;;;4.10;2.38;;;;;;;7.20;59.83;95034.69;5444402;26;20007;-46
2024/04/20 08:55:47;;;;;;;2.70;2.25;;;;;;;7.07;60.38;95036.13;5441081;26;20018;-50
2024/04/20 08:58:13;;;;;;;2.58;2.17;;;;;;;7.11;60.97;95045.19;5413905;26;19999;-46
2024/04/20 09:00:39;;;;;;;2.90;1.83;;;;;;;7.16;61.17;95029.97;5437260;26;19995;-50
2024/04/20 09:03:06;;;;;;;2.90;1.83;;;;;;;7.34;60.86;95046.16;5436900;26;20073;-50
2024/04/20 09:05:33;;;;;;;2.97;1.70;;;;;;;7.47;61.09;95050.06;5440721;26;20021;-48
2024/04/20 09:07:58;;;;;;;2.90;1.70;;;;;;;7.77;60.26;95057.13;5425943;26;20020;-48
2024/04/20 09:10:24;;;;;;;3.33;1.45;;;;;;;7.67;61.32;95053.91;5439158;26;19999;-47
2024/04/20 09:12:49;;;;;;;2.50;1.48;;;;;;;8.09;59.09;95059.81;5439879;26;20007;-50
2024/04/20 09:15:17;;;;;;;2.00;1.60;;;;;;;8.15;59.17;95059.19;5440996;26;20006;-53
2024/04/20 09:17:42;;;;;;;1.60;1.40;;;;;;;8.17;60.11;95068.41;5437828;26;20003;-49
2024/04/20 09:20:08;;;;;;;1.95;1.30;;;;;;;8.28;60.40;95071.59;5437531;26;20072;-49
2024/04/20 09:22:34;;;;;;;2.85;1.50;;;;;;;8.63;59.37;95069.56;5445240;26;20003;-54
2024/04/20 09:25:01;;;;;;;2.35;1.45;;;;;;;8.60;59.58;95078.47;5439977;26;20052;-50
2024/04/20 09:27:27;;;;;;;1.15;1.05;;;;;;;9.04;58.57;95077.13;5439595;26;20004;-48
2024/04/20 09:29:52;;;;;;;1.27;1.17;;;;;;;8.92;59.46;95077.50;5430187;26;20003;-47
2024/04/20 09:32:21;;;;;;;1.85;1.10;;;;;;;9.13;58.48;95071.72;5387732;26;20002;-54
2024/04/20 09:34:48;;;;;;;1.30;1.20;;;;;;;8.98;57.84;95074.22;5443041;26;19995;-51
2024/04/20 09:37:13;;;;;;;1.25;1.10;;;;;;;9.29;59.54;95080.38;5444479;26;20013;-49
2024/04/20 09:39:39;;;;;;;1.52;1.10;;;;;;;9.46;58.83;95075.88;5437735;26;19996;-50
2024/04/20 09:42:06;;;;;;;1.77;1.40;;;;;;;9.55;58.05;95085.22;5443604;26;20151;-49
2024/04/20 09:44:33;;;;;;;2.83;2.25;;;;;;;9.45;57.76;95074.28;5443987;26;20080;-53
2024/04/20 09:46:58;;;;;;;4.18;2.65;;;;;;;9.47;58.94;95087.88;5441616;26;20003;-50
2024/04/20 09:49:29;;;;;;;5.70;2.53;;;;;;;9.33;58.53;95082.47;5449407;26;20005;-52
2024/04/20 09:52:07;;;;;;;3.85;2.40;;;;;;;9.29;56.39;95081.19;5443080;26;20006;-52
2024/04/20 09:54:40;;;;;;;3.88;2.30;;;;;;;9.06;57.68;95081.16;5438158;26;20040;-45
2024/04/20 09:57:07;;;;;;;2.30;2.10;;;;;;;9.05;56.96;95083.94;5442228;26;20014;-45
2024/04/20 09:59:34;;;;;;;2.63;2.22;;;;;;;8.55;57.76;95089.34;5434964;26;20002;-46
2024/04/20 10:02:02;;;;;;;2.38;2.10;;;;;;;8.20;58.50;95082.78;5431336;26;20015;-49
2024/04/20 10:04:29;;;;;;;2.20;1.95;;;;;;;8.18;58.16;95075.19;5440967;26;20003;-50
2024/04/20 10:06:56;;;;;;;2.40;2.10;;;;;;;8.10;58.37;95071.81;5442257;26;19995;-48
2024/04/20 10:09:21;;;;;;;2.85;2.38;;;;;;;7.89;60.03;95075.72;5436599;26;19998;-47
2024/04/20 10:11:48;;;;;;;3.50;2.50;;;;;;;7.82;60.90;95073.00;5442398;26;20014;-50
2024/04/20 10:14:14;;;;;;;2.55;2.00;;;;;;;7.83;60.80;95064.25;5444588;26;20051;-48
2024/04/20 10:16:40;;;;;;;3.20;2.20;;;;;;;8.02;59.87;95075.22;5442993;26;20007;-47
2024/04/20 10:19:05;;;;;;;2.92;2.30;;;;;;;7.87;60.97;95074.28;5393045;26;20455;-48
2024/04/20 10:21:31;;;;;;;3.10;2.13;;;;;;;7.92;59.97;95069.41;5434814;26;20003;-46
2024/04/20 10:23:57;;;;;;;4.30;2.20;;;;;;;7.71;59.91;95062.16;5436535;26;20006;-45
2024/04/20 10:26:30;;;;;;;3.63;2.58;;;;;;;7.39;60.78;95066.38;5440445;26;19999;-47
2024/04/20 10:29:09;;;;;;;3.65;2.80;;;;;;;7.31;62.80;95080.13;5443005;26;20003;-46
2024/04/20 10:31:34;;;;;;;3.20;2.00;;;;;;;7.57;60.69;95079.94;5433460;26;20041;-44
2024/04/20 10:34:00;;;;;;;4.15;2.53;;;;;;;7.59;60.47;95090.16;5438612;26;20015;-45
2024/04/20 10:36:29;;;;;;;2.40;1.73;;;;;;;7.52;59.20;95086.59;5437691;26;20039;-44
2024/04/20 10:39:04;;;;;;;1.80;1.48;;;;;;;6.94;58.18;95098.66;5431093;26;20003;-43
2024/04/20 10:41:35;;;;;;;2.45;2.00;;;;;;;6.60;59.14;95094.34;5433278;26;19999;-43
2024/04/20 10:44:10;;;;;;;2.75;1.52;;;;;;;6.26;60.74;95093.41;5436226;26;19994;-43
2024/04/20 10:46:36;;;;;;;3.15;1.40;;;;;;;6.16;61.35;95089.28;5436123;26;19999;-44
2024/04/20 10:49:01;;;;;;;2.58;1.75;;;;;;;6.69;59.98;95095.97;5442518;26;20007;-45
2024/04/20 10:51:28;;;;;;;2.53;1.90;;;;;;;6.67;59.51;95097.91;5419605;26;20011;-49
2024/04/20 10:54:01;;;;;;;2.53;1.58;;;;;;;6.11;61.26;95097.50;5441603;26;19999;-48
2024/04/20 10:56:27;;;;;;;2.00;1.80;;;;;;;6.29;61.13;95099.22;5432328;26;20014;-44
2024/04/20 10:58:53;;;;;;;2.95;1.80;;;;;;;6.55;62.37;95093.97;5443482;26;20002;-44
2024/04/20 11:01:18;;;;;;;4.78;1.80;;;;;;;6.78;63.80;95094.25;5424962;26;20087;-45
2024/04/20 11:03:44;;;;;;;5.38;1.85;;;;;;;7.21;63.28;95094.97;5419803;26;20015;-47
2024/04/20 11:06:09;;;;;;;2.88;1.80;;;;;;;7.33;62.36;95090.28;5436226;26;19999;-48
2024/04/20 11:08:39;;;;;;;2.42;1.90;;;;;;;7.67;59.27;95094.50;5430859;26;20003;-45
2024/04/20 11:11:05;;;;;;;2.13;1.70;;;;;;;7.66;60.60;95088.53;5433961;26;20002;-48
2024/04/20 11:13:32;;;;;;;1.15;1.05;;;;;;;8.02;58.98;95093.38;5439851;26;19998;-44
2024/04/20 11:15:58;;;;;;;1.50;1.20;;;;;;;8.22;59.25;95099.81;5444825;26;20026;-48
2024/04/20 11:18:25;;;;;;;2.30;1.70;;;;;;;8.25;58.30;95098.66;5441745;26;19998;-48
2024/04/20 11:20:50;;;;;;;2.85;1.70;;;;;;;8.12;58.38;95099.16;5437225;26;20019;-45
2024/04/20 11:23:16;;;;;;;1.73;1.52;;;;;;;8.23;57.90;95093.63;5438180;26;20003;-45
2024/04/20 11:25:55;;;;;;;1.70;1.60;;;;;;;8.26;58.07;95096.88;5441624;26;20005;-44
2024/04/20 11:28:22;;;;;;;1.70;1.50;;;;;;;8.16;58.95;95097.06;5444662;26;20007;-46
2024/04/20 11:30:48;;;;;;;2.60;1.90;;;;;;;8.26;58.75;95096.88;5412880;26;20012;-48
2024/04/20 11:33:13;;;;;;;2.15;1.60;;;;;;;8.34;57.97;95092.47;5446321;26;20007;-49
2024/04/20 11:35:46;;;;;;;1.75;1.38;;;;;;;8.15;56.56;95091.06;5445115;26;20009;-48